sensor_id;sensor_type;location;lat;lon;timestamp;pressure;altitude;pressure_sealevel;temperature;humidity
66857;BME280;53766;50.280;19.160;2023-02-08T00:01:08;100871.34;;;13.60;41.77
66857;BME280;53766;50.280;19.160;2023-02-08T00:03:36;100867.00;;;13.58;41.89
66857;BME280;53766;50.280;19.160;2023-02-08T00:06:04;100866.06;;;13.60;41.52
66857;BME280;53766;50.280;19.160;2023-02-08T00:08:33;100872.28;;;13.58;41.86
66857;BME280;53766;50.280;19.160;2023-02-08T00:11:01;100869.88;;;13.55;41.52
66857;BME280;53766;50.280;19.160;2023-02-08T00:13:29;100865.66;;;13.53;41.58
66857;BME280;53766;50.280;19.160;2023-02-08T00:15:56;100863.84;;;13.53;41.70
66857;BME280;53766;50.280;19.160;2023-02-08T00:18:24;100863.94;;;13.52;41.66
66857;BME280;53766;50.280;19.160;2023-02-08T00:20:52;100863.94;;;13.52;41.72
66857;BME280;53766;50.280;19.160;2023-02-08T00:23:19;100868.41;;;13.51;41.39
66857;BME280;53766;50.280;19.160;2023-02-08T00:25:46;100863.13;;;13.51;41.84
66857;BME280;53766;50.280;19.160;2023-02-08T00:28:15;100855.41;;;13.48;41.51
66857;BME280;53766;50.280;19.160;2023-02-08T00:30:43;100863.34;;;13.48;41.37
66857;BME280;53766;50.280;19.160;2023-02-08T00:33:11;100856.34;;;13.47;41.79
66857;BME280;53766;50.280;19.160;2023-02-08T00:35:38;100855.41;;;13.48;41.43
66857;BME280;53766;50.280;19.160;2023-02-08T00:38:07;100851.19;;;13.46;41.54
66857;BME280;53766;50.280;19.160;2023-02-08T00:40:34;100850.22;;;13.47;41.45
66857;BME280;53766;50.280;19.160;2023-02-08T00:43:02;100860.91;;;13.45;41.60
66857;BME280;53766;50.280;19.160;2023-02-08T00:45:30;100858.28;;;13.45;41.55
66857;BME280;53766;50.280;19.160;2023-02-08T00:47:58;100850.31;;;13.45;41.55
66857;BME280;53766;50.280;19.160;2023-02-08T00:50:26;100857.53;;;13.43;41.51
66857;BME280;53766;50.280;19.160;2023-02-08T00:52:54;100859.34;;;13.43;41.49
66857;BME280;53766;50.280;19.160;2023-02-08T00:55:21;100860.31;;;13.42;41.39
66857;BME280;53766;50.280;19.160;2023-02-08T00:57:49;100862.09;;;13.41;41.42
66857;BME280;53766;50.280;19.160;2023-02-08T01:00:16;100856.78;;;13.41;41.40
66857;BME280;53766;50.280;19.160;2023-02-08T01:02:44;100855.13;;;13.40;41.79
66857;BME280;53766;50.280;19.160;2023-02-08T01:05:12;100857.88;;;13.38;41.88
66857;BME280;53766;50.280;19.160;2023-02-08T01:07:39;100851.50;;;13.41;41.32
66857;BME280;53766;50.280;19.160;2023-02-08T01:10:09;100860.41;;;13.40;41.37
66857;BME280;53766;50.280;19.160;2023-02-08T01:12:38;100849.09;;;13.38;41.33
66857;BME280;53766;50.280;19.160;2023-02-08T01:15:06;100847.28;;;13.38;41.41
66857;BME280;53766;50.280;19.160;2023-02-08T01:17:33;100850.78;;;13.39;41.64
66857;BME280;53766;50.280;19.160;2023-02-08T01:20:01;100850.91;;;13.37;41.66
66857;BME280;53766;50.280;19.160;2023-02-08T01:22:29;100844.78;;;13.37;41.37
66857;BME280;53766;50.280;19.160;2023-02-08T01:24:56;100844.63;;;13.38;41.34
66857;BME280;53766;50.280;19.160;2023-02-08T01:27:23;100847.28;;;13.38;41.45
66857;BME280;53766;50.280;19.160;2023-02-08T01:29:51;100850.06;;;13.37;41.48
66857;BME280;53766;50.280;19.160;2023-02-08T01:32:18;100845.72;;;13.36;41.26
66857;BME280;53766;50.280;19.160;2023-02-08T01:34:46;100844.78;;;13.37;41.63
66857;BME280;53766;50.280;19.160;2023-02-08T01:37:13;100843.06;;;13.36;41.45
66857;BME280;53766;50.280;19.160;2023-02-08T01:39:40;100837.78;;;13.36;41.42
66857;BME280;53766;50.280;19.160;2023-02-08T01:42:12;100843.06;;;13.36;41.33
66857;BME280;53766;50.280;19.160;2023-02-08T01:47:44;100843.06;;;13.36;41.75
66857;BME280;53766;50.280;19.160;2023-02-08T01:50:14;100843.91;;;13.36;41.65
66857;BME280;53766;50.280;19.160;2023-02-08T01:52:44;100851.13;;;13.34;41.54
66857;BME280;53766;50.280;19.160;2023-02-08T01:55:19;100847.41;;;13.37;41.49
66857;BME280;53766;50.280;19.160;2023-02-08T01:57:52;100851.97;;;13.35;41.18
66857;BME280;53766;50.280;19.160;2023-02-08T02:00:21;100850.28;;;13.34;41.36
66857;BME280;53766;50.280;19.160;2023-02-08T02:02:52;100846.91;;;13.32;41.38
66857;BME280;53766;50.280;19.160;2023-02-08T02:05:23;100851.34;;;13.31;41.14
66857;BME280;53766;50.280;19.160;2023-02-08T02:07:52;100839.06;;;13.30;41.21
66857;BME280;53766;50.280;19.160;2023-02-08T02:10:32;100843.50;;;13.30;41.54
66857;BME280;53766;50.280;19.160;2023-02-08T02:13:13;100846.91;;;13.32;41.08
66857;BME280;53766;50.280;19.160;2023-02-08T02:15:42;100847.00;;;13.30;41.50
66857;BME280;53766;50.280;19.160;2023-02-08T02:18:12;100843.50;;;13.30;41.05
66857;BME280;53766;50.280;19.160;2023-02-08T02:34:54;100851.44;;;13.30;41.45
66857;BME280;53766;50.280;19.160;2023-02-08T02:37:38;100851.44;;;13.30;41.33
66857;BME280;53766;50.280;19.160;2023-02-08T02:43:05;100857.72;;;13.29;41.25
66857;BME280;53766;50.280;19.160;2023-02-08T02:51:09;100855.06;;;13.29;41.54
66857;BME280;53766;50.280;19.160;2023-02-08T02:53:58;100871.69;;;13.31;41.59
66857;BME280;53766;50.280;19.160;2023-02-08T02:56:30;100866.25;;;13.32;41.26
66857;BME280;53766;50.280;19.160;2023-02-08T02:59:03;100872.53;;;13.31;41.21
66857;BME280;53766;50.280;19.160;2023-02-08T03:01:32;100878.88;;;13.29;41.45
66857;BME280;53766;50.280;19.160;2023-02-08T03:03:59;100875.41;;;13.28;41.28
66857;BME280;53766;50.280;19.160;2023-02-08T03:09:45;100885.84;;;13.30;41.30
66857;BME280;53766;50.280;19.160;2023-02-08T03:18:04;100886.69;;;13.30;41.46
66857;BME280;53766;50.280;19.160;2023-02-08T03:20:38;100880.56;;;13.30;41.18
66857;BME280;53766;50.280;19.160;2023-02-08T03:23:08;100887.56;;;13.31;41.49
66857;BME280;53766;50.280;19.160;2023-02-08T03:28:19;100877.81;;;13.31;41.31
66857;BME280;53766;50.280;19.160;2023-02-08T03:30:58;100882.13;;;13.32;41.48
66857;BME280;53766;50.280;19.160;2023-02-08T03:33:52;100897.91;;;13.34;41.18
66857;BME280;53766;50.280;19.160;2023-02-08T03:36:29;100897.91;;;13.34;41.56
66857;BME280;53766;50.280;19.160;2023-02-08T03:39:02;100892.63;;;13.34;41.26
66857;BME280;53766;50.280;19.160;2023-02-08T03:41:36;100898.75;;;13.34;41.18
66857;BME280;53766;50.280;19.160;2023-02-08T03:44:20;100894.34;;;13.35;41.09
66857;BME280;53766;50.280;19.160;2023-02-08T03:46:51;100896.25;;;13.33;41.47
66857;BME280;53766;50.280;19.160;2023-02-08T03:49:25;100900.56;;;13.34;41.08
66857;BME280;53766;50.280;19.160;2023-02-08T03:51:57;100904.28;;;13.31;41.49
66857;BME280;53766;50.280;19.160;2023-02-08T03:54:29;100893.69;;;13.31;41.49
66857;BME280;53766;50.280;19.160;2023-02-08T03:57:20;100896.25;;;13.33;41.40
66857;BME280;53766;50.280;19.160;2023-02-08T03:59:54;100897.19;;;13.32;41.46
66857;BME280;53766;50.280;19.160;2023-02-08T04:02:24;100900.06;;;13.29;41.07
66857;BME280;53766;50.280;19.160;2023-02-08T04:04:54;100900.97;;;13.28;41.41
66857;BME280;53766;50.280;19.160;2023-02-08T04:07:22;100906.25;;;13.28;41.47
66857;BME280;53766;50.280;19.160;2023-02-08T04:09:50;100900.91;;;13.29;41.18
66857;BME280;53766;50.280;19.160;2023-02-08T04:12:17;100899.22;;;13.28;41.07
66857;BME280;53766;50.280;19.160;2023-02-08T04:14:45;100900.13;;;13.27;41.28
66857;BME280;53766;50.280;19.160;2023-02-08T04:17:12;100903.63;;;13.28;41.39
66857;BME280;53766;50.280;19.160;2023-02-08T04:19:40;100908.00;;;13.29;41.43
66857;BME280;53766;50.280;19.160;2023-02-08T04:22:07;100900.97;;;13.28;41.41
66857;BME280;53766;50.280;19.160;2023-02-08T04:24:35;100900.06;;;13.29;41.44
66857;BME280;53766;50.280;19.160;2023-02-08T04:27:02;100903.63;;;13.28;41.17
66857;BME280;53766;50.280;19.160;2023-02-08T04:29:32;100899.28;;;13.27;41.47
66857;BME280;53766;50.280;19.160;2023-02-08T04:31:59;100907.22;;;13.27;41.44
66857;BME280;53766;50.280;19.160;2023-02-08T04:34:27;100913.47;;;13.26;41.32
66857;BME280;53766;50.280;19.160;2023-02-08T04:36:54;100909.16;;;13.25;41.29
66857;BME280;53766;50.280;19.160;2023-02-08T04:39:22;100902.03;;;13.25;41.02
66857;BME280;53766;50.280;19.160;2023-02-08T04:41:49;100904.69;;;13.25;40.92
66857;BME280;53766;50.280;19.160;2023-02-08T04:44:17;100902.13;;;13.24;41.29
66857;BME280;53766;50.280;19.160;2023-02-08T04:46:44;100903.94;;;13.23;41.08
66857;BME280;53766;50.280;19.160;2023-02-08T04:49:12;100890.72;;;13.23;40.96
66857;BME280;53766;50.280;19.160;2023-02-08T04:51:39;100897.09;;;13.21;41.32
66857;BME280;53766;50.280;19.160;2023-02-08T04:54:07;100898.75;;;13.22;41.09
66857;BME280;53766;50.280;19.160;2023-02-08T04:56:35;100896.13;;;13.22;40.98
66857;BME280;53766;50.280;19.160;2023-02-08T04:59:03;100889.88;;;13.23;41.09
66857;BME280;53766;50.280;19.160;2023-02-08T05:01:30;100902.38;;;13.21;41.26
66857;BME280;53766;50.280;19.160;2023-02-08T05:03:58;100898.88;;;13.20;41.19
66857;BME280;53766;50.280;19.160;2023-02-08T05:06:25;100903.34;;;13.20;41.34
66857;BME280;53766;50.280;19.160;2023-02-08T05:08:53;100912.97;;;13.21;40.93
66857;BME280;53766;50.280;19.160;2023-02-08T05:11:21;100923.53;;;13.21;41.12
66857;BME280;53766;50.280;19.160;2023-02-08T05:13:50;100921.00;;;13.19;41.27
66857;BME280;53766;50.280;19.160;2023-02-08T05:16:18;100930.75;;;13.18;41.04
66857;BME280;53766;50.280;19.160;2023-02-08T05:18:45;100924.63;;;13.18;40.94
66857;BME280;53766;50.280;19.160;2023-02-08T05:21:12;100932.44;;;13.20;40.83
66857;BME280;53766;50.280;19.160;2023-02-08T05:23:40;100924.63;;;13.18;41.22
66857;BME280;53766;50.280;19.160;2023-02-08T05:26:08;100929.06;;;13.17;41.03
66857;BME280;53766;50.280;19.160;2023-02-08T05:28:37;100923.78;;;13.17;41.18
66857;BME280;53766;50.280;19.160;2023-02-08T05:31:21;100922.72;;;13.20;40.90
66857;BME280;53766;50.280;19.160;2023-02-08T05:33:50;100921.13;;;13.17;41.21
66857;BME280;53766;50.280;19.160;2023-02-08T05:36:18;100927.38;;;13.16;40.87
66857;BME280;53766;50.280;19.160;2023-02-08T05:38:46;100928.31;;;13.15;41.06
66857;BME280;53766;50.280;19.160;2023-02-08T05:41:14;100928.19;;;13.17;41.00
66857;BME280;53766;50.280;19.160;2023-02-08T05:43:42;100924.81;;;13.15;40.88
66857;BME280;53766;50.280;19.160;2023-02-08T05:46:10;100928.19;;;13.17;40.98
66857;BME280;53766;50.280;19.160;2023-02-08T05:48:38;100929.06;;;13.17;41.24
66857;BME280;53766;50.280;19.160;2023-02-08T05:51:05;100937.94;;;13.16;41.26
66857;BME280;53766;50.280;19.160;2023-02-08T05:53:33;100941.56;;;13.15;41.30
66857;BME280;53766;50.280;19.160;2023-02-08T05:56:01;100945.78;;;13.18;41.09
66857;BME280;53766;50.280;19.160;2023-02-08T05:58:28;100944.94;;;13.17;41.25
66857;BME280;53766;50.280;19.160;2023-02-08T06:00:56;100945.78;;;13.18;41.34
66857;BME280;53766;50.280;19.160;2023-02-08T06:03:24;100951.06;;;13.18;41.59
66857;BME280;53766;50.280;19.160;2023-02-08T06:05:51;100949.28;;;13.18;41.66
66857;BME280;53766;50.280;19.160;2023-02-08T06:08:19;100943.03;;;13.20;41.82
66857;BME280;53766;50.280;19.160;2023-02-08T06:10:47;100955.41;;;13.19;41.92
66857;BME280;53766;50.280;19.160;2023-02-08T06:13:15;100954.47;;;13.20;41.62
66857;BME280;53766;50.280;19.160;2023-02-08T06:15:43;100955.31;;;13.21;41.72
66857;BME280;53766;50.280;19.160;2023-02-08T06:18:11;100963.25;;;13.21;41.95
66857;BME280;53766;50.280;19.160;2023-02-08T06:20:38;100958.91;;;13.20;41.79
66857;BME280;53766;50.280;19.160;2023-02-08T06:23:06;100953.63;;;13.20;41.82
66857;BME280;53766;50.280;19.160;2023-02-08T06:25:33;100965.88;;;13.21;41.86
66857;BME280;53766;50.280;19.160;2023-02-08T06:28:01;100966.84;;;13.20;42.22
66857;BME280;53766;50.280;19.160;2023-02-08T06:30:29;100965.16;;;13.18;42.23
66857;BME280;53766;50.280;19.160;2023-02-08T06:32:57;100975.00;;;13.16;41.90
66857;BME280;53766;50.280;19.160;2023-02-08T06:35:25;100967.88;;;13.17;42.38
66857;BME280;53766;50.280;19.160;2023-02-08T06:37:52;100979.44;;;13.16;42.34
66857;BME280;53766;50.280;19.160;2023-02-08T06:40:20;100978.69;;;13.14;42.43
66857;BME280;53766;50.280;19.160;2023-02-08T06:42:48;100982.19;;;13.14;42.05
66857;BME280;53766;50.280;19.160;2023-02-08T06:45:16;100982.19;;;13.14;42.12
66857;BME280;53766;50.280;19.160;2023-02-08T06:47:44;100987.47;;;13.14;42.22
66857;BME280;53766;50.280;19.160;2023-02-08T06:50:11;100984.94;;;13.13;42.37
66857;BME280;53766;50.280;19.160;2023-02-08T06:52:41;100986.75;;;13.12;41.82
66857;BME280;53766;50.280;19.160;2023-02-08T06:55:08;100984.94;;;13.13;42.24
66857;BME280;53766;50.280;19.160;2023-02-08T06:57:35;100999.97;;;13.12;42.10
66857;BME280;53766;50.280;19.160;2023-02-08T07:00:04;101000.94;;;13.11;41.93
66857;BME280;53766;50.280;19.160;2023-02-08T07:02:31;100995.66;;;13.11;42.10
66857;BME280;53766;50.280;19.160;2023-02-08T07:04:59;101003.59;;;13.11;42.10
66857;BME280;53766;50.280;19.160;2023-02-08T07:07:27;101007.16;;;13.10;42.06
66857;BME280;53766;50.280;19.160;2023-02-08T07:09:54;101001.88;;;13.10;41.88
66857;BME280;53766;50.280;19.160;2023-02-08T07:12:22;101007.16;;;13.10;42.06
66857;BME280;53766;50.280;19.160;2023-02-08T07:14:49;100998.47;;;13.08;41.90
66857;BME280;53766;50.280;19.160;2023-02-08T07:17:16;100999.34;;;13.09;41.97
66857;BME280;53766;50.280;19.160;2023-02-08T07:19:44;101008.03;;;13.11;42.17
66857;BME280;53766;50.280;19.160;2023-02-08T07:22:12;101022.19;;;13.10;41.92
66857;BME280;53766;50.280;19.160;2023-02-08T07:24:40;101016.06;;;13.09;41.91
66857;BME280;53766;50.280;19.160;2023-02-08T07:27:09;101015.22;;;13.09;42.10
66857;BME280;53766;50.280;19.160;2023-02-08T07:29:37;101007.16;;;13.10;42.08
66857;BME280;53766;50.280;19.160;2023-02-08T07:32:06;101008.13;;;13.09;42.00
66857;BME280;53766;50.280;19.160;2023-02-08T07:34:35;101009.06;;;13.08;41.86
66857;BME280;53766;50.280;19.160;2023-02-08T07:37:04;101011.72;;;13.08;41.90
66857;BME280;53766;50.280;19.160;2023-02-08T07:39:31;101015.09;;;13.10;41.95
66857;BME280;53766;50.280;19.160;2023-02-08T07:41:59;101022.19;;;13.10;42.00
66857;BME280;53766;50.280;19.160;2023-02-08T07:44:26;101028.34;;;13.10;41.57
66857;BME280;53766;50.280;19.160;2023-02-08T07:46:54;101017.88;;;13.09;41.82
66857;BME280;53766;50.280;19.160;2023-02-08T07:49:21;101024.94;;;13.08;41.87
66857;BME280;53766;50.280;19.160;2023-02-08T07:51:49;101023.28;;;13.07;41.76
66857;BME280;53766;50.280;19.160;2023-02-08T07:54:16;101015.31;;;13.07;41.50
66857;BME280;53766;50.280;19.160;2023-02-08T07:56:43;101023.28;;;13.07;41.90
66857;BME280;53766;50.280;19.160;2023-02-08T07:59:11;101025.81;;;13.09;41.73
66857;BME280;53766;50.280;19.160;2023-02-08T08:01:38;101018.72;;;13.09;41.68
66857;BME280;53766;50.280;19.160;2023-02-08T08:04:06;101022.09;;;13.11;41.40
66857;BME280;53766;50.280;19.160;2023-02-08T08:06:34;101022.94;;;13.12;41.34
66857;BME280;53766;50.280;19.160;2023-02-08T08:09:02;101029.81;;;13.14;41.59
66857;BME280;53766;50.280;19.160;2023-02-08T08:11:30;101027.16;;;13.14;41.51
66857;BME280;53766;50.280;19.160;2023-02-08T08:13:57;101027.91;;;13.16;41.35
66857;BME280;53766;50.280;19.160;2023-02-08T08:16:25;101030.47;;;13.18;41.27
66857;BME280;53766;50.280;19.160;2023-02-08T08:18:53;101041.03;;;13.18;41.28
66857;BME280;53766;50.280;19.160;2023-02-08T08:21:21;101037.44;;;13.19;41.11
66857;BME280;53766;50.280;19.160;2023-02-08T08:23:48;101043.59;;;13.20;41.28
66857;BME280;53766;50.280;19.160;2023-02-08T08:26:18;101045.03;;;13.24;41.07
66857;BME280;53766;50.280;19.160;2023-02-08T08:28:46;101046.75;;;13.25;41.33
66857;BME280;53766;50.280;19.160;2023-02-08T08:31:21;101044.84;;;13.27;40.93
66857;BME280;53766;50.280;19.160;2023-02-08T08:33:49;101042.22;;;13.27;40.95
66857;BME280;53766;50.280;19.160;2023-02-08T08:36:17;101052.72;;;13.28;41.12
66857;BME280;53766;50.280;19.160;2023-02-08T08:38:44;101056.09;;;13.30;41.40
66857;BME280;53766;50.280;19.160;2023-02-08T08:41:14;101052.50;;;13.31;41.16
66857;BME280;53766;50.280;19.160;2023-02-08T08:43:44;101058.63;;;13.32;41.01
66857;BME280;53766;50.280;19.160;2023-02-08T08:46:11;101063.72;;;13.35;40.89
66857;BME280;53766;50.280;19.160;2023-02-08T08:48:39;101064.56;;;13.35;41.15
66857;BME280;53766;50.280;19.160;2023-02-08T08:51:07;101069.03;;;13.35;40.93
66857;BME280;53766;50.280;19.160;2023-02-08T08:53:34;101061.81;;;13.37;40.74
66857;BME280;53766;50.280;19.160;2023-02-08T08:56:04;101061.94;;;13.35;40.78
66857;BME280;53766;50.280;19.160;2023-02-08T08:58:32;101056.53;;;13.37;40.88
66857;BME280;53766;50.280;19.160;2023-02-08T09:01:00;101069.63;;;13.38;40.76
66857;BME280;53766;50.280;19.160;2023-02-08T09:03:27;101065.19;;;13.39;41.02
66857;BME280;53766;50.280;19.160;2023-02-08T09:05:55;101068.56;;;13.41;40.61
66857;BME280;53766;50.280;19.160;2023-02-08T09:08:22;101069.44;;;13.42;40.62
66857;BME280;53766;50.280;19.160;2023-02-08T09:10:50;101070.28;;;13.42;40.85
66857;BME280;53766;50.280;19.160;2023-02-08T09:13:17;101071.13;;;13.43;40.52
66857;BME280;53766;50.280;19.160;2023-02-08T09:15:47;101071.97;;;13.43;40.54
66857;BME280;53766;50.280;19.160;2023-02-08T09:18:15;101064.03;;;13.43;40.71
66857;BME280;53766;50.280;19.160;2023-02-08T09:20:43;101069.22;;;13.45;40.74
66857;BME280;53766;50.280;19.160;2023-02-08T09:23:11;101075.34;;;13.45;40.50
66857;BME280;53766;50.280;19.160;2023-02-08T09:25:39;101075.16;;;13.48;40.34
66857;BME280;53766;50.280;19.160;2023-02-08T09:28:07;101082.13;;;13.49;40.23
66857;BME280;53766;50.280;19.160;2023-02-08T09:30:34;101084.69;;;13.51;40.63
66857;BME280;53766;50.280;19.160;2023-02-08T09:33:02;101075.88;;;13.50;40.63
66857;BME280;53766;50.280;19.160;2023-02-08T09:35:29;101078.31;;;13.53;40.29
66857;BME280;53766;50.280;19.160;2023-02-08T09:37:57;101081.94;;;13.52;40.42
66857;BME280;53766;50.280;19.160;2023-02-08T09:40:41;101079.06;;;13.55;40.16
66857;BME280;53766;50.280;19.160;2023-02-08T09:43:39;101076.31;;;13.57;40.44
66857;BME280;53766;50.280;19.160;2023-02-08T09:46:17;101079.78;;;13.57;40.22
66857;BME280;53766;50.280;19.160;2023-02-08T09:48:45;101074.50;;;13.57;40.37
66857;BME280;53766;50.280;19.160;2023-02-08T09:51:34;101075.25;;;13.60;40.07
66857;BME280;53766;50.280;19.160;2023-02-08T09:54:07;101068.22;;;13.58;40.07
66857;BME280;53766;50.280;19.160;2023-02-08T09:56:40;101070.88;;;13.58;40.00
66857;BME280;53766;50.280;19.160;2023-02-08T09:59:14;101063.91;;;13.57;40.44
66857;BME280;53766;50.280;19.160;2023-02-08T10:01:43;101077.03;;;13.59;40.11
66857;BME280;53766;50.280;19.160;2023-02-08T10:04:21;101074.50;;;13.57;40.51
66857;BME280;53766;50.280;19.160;2023-02-08T10:06:50;101070.88;;;13.58;40.02
66857;BME280;53766;50.280;19.160;2023-02-08T10:09:20;101077.16;;;13.57;40.22
66857;BME280;53766;50.280;19.160;2023-02-08T10:11:56;101083.19;;;13.60;40.17
66857;BME280;53766;50.280;19.160;2023-02-08T10:20:15;101076.41;;;13.55;40.51
66857;BME280;53766;50.280;19.160;2023-02-08T10:23:07;101074.72;;;13.54;40.51
66857;BME280;53766;50.280;19.160;2023-02-08T10:26:01;101068.56;;;13.54;40.28
66857;BME280;53766;50.280;19.160;2023-02-08T10:28:59;101073.00;;;13.53;40.45
66857;BME280;53766;50.280;19.160;2023-02-08T10:32:03;101066.78;;;13.54;40.17
66857;BME280;53766;50.280;19.160;2023-02-08T10:34:45;101064.13;;;13.54;40.26
66857;BME280;53766;50.280;19.160;2023-02-08T10:37:19;101073.75;;;13.55;40.52
66857;BME280;53766;50.280;19.160;2023-02-08T10:39:54;101065.06;;;13.53;40.02
66857;BME280;53766;50.280;19.160;2023-02-08T10:42:34;101065.16;;;13.52;40.24
66857;BME280;53766;50.280;19.160;2023-02-08T10:45:21;101069.63;;;13.51;40.19
66857;BME280;53766;50.280;19.160;2023-02-08T10:47:56;101064.44;;;13.50;40.45
66857;BME280;53766;50.280;19.160;2023-02-08T10:53:16;101067.94;;;13.50;40.21
66857;BME280;53766;50.280;19.160;2023-02-08T10:55:46;101067.94;;;13.50;40.01
66857;BME280;53766;50.280;19.160;2023-02-08T10:58:21;101069.72;;;13.50;40.46
66857;BME280;53766;50.280;19.160;2023-02-08T11:00:51;101076.84;;;13.49;39.94
66857;BME280;53766;50.280;19.160;2023-02-08T11:03:29;101080.31;;;13.50;39.98
66857;BME280;53766;50.280;19.160;2023-02-08T11:06:01;101077.66;;;13.50;39.98
66857;BME280;53766;50.280;19.160;2023-02-08T11:08:32;101083.84;;;13.50;40.38
66857;BME280;53766;50.280;19.160;2023-02-08T11:11:38;101087.41;;;13.49;39.88
66857;BME280;53766;50.280;19.160;2023-02-08T11:14:29;101078.75;;;13.47;40.11
66857;BME280;53766;50.280;19.160;2023-02-08T11:17:24;101083.84;;;13.50;40.18
66857;BME280;53766;50.280;19.160;2023-02-08T11:19:55;101077.06;;;13.46;40.26
66857;BME280;53766;50.280;19.160;2023-02-08T11:22:27;101071.75;;;13.46;40.44
66857;BME280;53766;50.280;19.160;2023-02-08T11:25:03;101070.06;;;13.45;40.04
66857;BME280;53766;50.280;19.160;2023-02-08T11:27:47;101063.69;;;13.48;39.87
66857;BME280;53766;50.280;19.160;2023-02-08T11:30:23;101064.75;;;13.45;40.26
66857;BME280;53766;50.280;19.160;2023-02-08T11:33:17;101063.06;;;13.44;40.12
66857;BME280;53766;50.280;19.160;2023-02-08T11:35:52;101054.16;;;13.45;40.09
66857;BME280;53766;50.280;19.160;2023-02-08T11:38:26;101056.72;;;13.47;39.97
66857;BME280;53766;50.280;19.160;2023-02-08T11:40:59;101063.91;;;13.45;39.97
66857;BME280;53766;50.280;19.160;2023-02-08T11:43:34;101055.97;;;13.45;40.12
66857;BME280;53766;50.280;19.160;2023-02-08T11:46:10;101055.03;;;13.46;40.09
66857;BME280;53766;50.280;19.160;2023-02-08T11:48:42;101052.50;;;13.44;40.04
66857;BME280;53766;50.280;19.160;2023-02-08T11:51:25;101054.16;;;13.45;40.07
66857;BME280;53766;50.280;19.160;2023-02-08T11:53:54;101048.88;;;13.45;40.16
66857;BME280;53766;50.280;19.160;2023-02-08T11:56:26;101045.28;;;13.46;39.82
66857;BME280;53766;50.280;19.160;2023-02-08T12:01:41;101041.66;;;13.47;40.05
66857;BME280;53766;50.280;19.160;2023-02-08T12:04:12;101040.00;;;13.46;40.20
66857;BME280;53766;50.280;19.160;2023-02-08T12:06:53;101042.50;;;13.48;39.87
66857;BME280;53766;50.280;19.160;2023-02-08T12:09:53;101043.56;;;13.45;39.77
66857;BME280;53766;50.280;19.160;2023-02-08T12:12:48;101040.84;;;13.47;40.20
66857;BME280;53766;50.280;19.160;2023-02-08T12:21:19;101024.94;;;13.47;40.05
66857;BME280;53766;50.280;19.160;2023-02-08T12:23:59;101030.25;;;13.47;40.08
66857;BME280;53766;50.280;19.160;2023-02-08T12:26:49;101023.28;;;13.46;39.76
66857;BME280;53766;50.280;19.160;2023-02-08T12:29:40;101031.91;;;13.48;39.94
66857;BME280;53766;50.280;19.160;2023-02-08T12:35:08;101014.47;;;13.45;40.00
66857;BME280;53766;50.280;19.160;2023-02-08T12:37:51;101010.13;;;13.44;39.78
66857;BME280;53766;50.280;19.160;2023-02-08T12:43:49;101000.38;;;13.45;39.91
66857;BME280;53766;50.280;19.160;2023-02-08T12:54:45;100997.84;;;13.43;39.75
66857;BME280;53766;50.280;19.160;2023-02-08T12:57:17;100989.16;;;13.41;39.84
66857;BME280;53766;50.280;19.160;2023-02-08T12:59:50;100991.06;;;13.39;40.19
66857;BME280;53766;50.280;19.160;2023-02-08T13:02:33;100984.09;;;13.38;39.96
66857;BME280;53766;50.280;19.160;2023-02-08T13:05:05;100987.72;;;13.37;40.00
66857;BME280;53766;50.280;19.160;2023-02-08T13:07:43;100990.34;;;13.37;40.15
66857;BME280;53766;50.280;19.160;2023-02-08T13:10:23;100990.34;;;13.37;40.15
66857;BME280;53766;50.280;19.160;2023-02-08T13:12:55;100980.72;;;13.36;39.87
66857;BME280;53766;50.280;19.160;2023-02-08T13:15:31;100982.50;;;13.35;40.22
66857;BME280;53766;50.280;19.160;2023-02-08T13:18:19;100981.53;;;13.36;39.85
66857;BME280;53766;50.280;19.160;2023-02-08T13:21:06;100971.09;;;13.35;40.20
66857;BME280;53766;50.280;19.160;2023-02-08T13:23:41;100977.31;;;13.34;40.07
66857;BME280;53766;50.280;19.160;2023-02-08T13:26:21;100980.94;;;13.33;39.79
66857;BME280;53766;50.280;19.160;2023-02-08T13:28:54;100970.34;;;13.33;40.15
66857;BME280;53766;50.280;19.160;2023-02-08T13:31:25;100982.63;;;13.34;40.09
66857;BME280;53766;50.280;19.160;2023-02-08T13:33:58;100977.31;;;13.34;40.10
66857;BME280;53766;50.280;19.160;2023-02-08T13:36:49;100979.22;;;13.32;40.06
66857;BME280;53766;50.280;19.160;2023-02-08T13:39:44;100980.94;;;13.33;39.92
66857;BME280;53766;50.280;19.160;2023-02-08T13:42:28;100973.09;;;13.31;40.10
66857;BME280;53766;50.280;19.160;2023-02-08T13:44:57;100975.00;;;13.29;39.99
66857;BME280;53766;50.280;19.160;2023-02-08T13:47:43;100980.06;;;13.32;40.40
66857;BME280;53766;50.280;19.160;2023-02-08T13:53:03;100972.25;;;13.31;40.08
66857;BME280;53766;50.280;19.160;2023-02-08T13:58:03;100970.56;;;13.30;39.84
66857;BME280;53766;50.280;19.160;2023-02-08T14:00:34;100977.56;;;13.31;39.83
66857;BME280;53766;50.280;19.160;2023-02-08T14:03:19;100970.56;;;13.30;40.04
66857;BME280;53766;50.280;19.160;2023-02-08T14:08:53;100975.97;;;13.28;40.16
66857;BME280;53766;50.280;19.160;2023-02-08T14:11:30;100968.88;;;13.29;39.90
66857;BME280;53766;50.280;19.160;2023-02-08T14:14:17;100968.88;;;13.29;40.15
66857;BME280;53766;50.280;19.160;2023-02-08T14:17:10;100969.63;;;13.31;39.79
66857;BME280;53766;50.280;19.160;2023-02-08T14:19:42;100970.56;;;13.30;39.83
66857;BME280;53766;50.280;19.160;2023-02-08T14:24:47;100971.38;;;13.30;39.87